Time;durP1;ratioP1;P1;durP2;ratioP2;P2;SDS_P1;SDS_P2;PMS_P1;PMS_P2;Temp;Humidity;BMP_temperature;BMP_pressure;BME280_temperature;BME280_humidity;BME280_pressure;Samples;Min_cycle;Max_cycle;Signal;HPM_P1;HPM_P2
2022/01/18 00:00:01;;;;;;;51.08;16.48;;;;;;;3.86;100.00;100519.94;5025312;28;20020;-67
2022/01/18 00:02:27;;;;;;;61.75;19.10;;;;;;;3.81;100.00;100521.53;5025592;28;20030;-67
2022/01/18 00:04:52;;;;;;;48.28;18.42;;;;;;;3.82;100.00;100517.19;5025596;28;20080;-67
2022/01/18 00:07:18;;;;;;;62.58;20.67;;;;;;;3.88;100.00;100513.09;5025643;28;20018;-67
2022/01/18 00:09:43;;;;;;;53.05;19.00;;;;;;;3.85;100.00;100518.19;5025428;28;20076;-67
2022/01/18 00:12:43;;;;;;;51.22;17.95;;;;;;;3.88;100.00;100513.09;5025603;28;20029;-67
2022/01/18 00:20:39;;;;;;;63.58;19.65;;;;;;;3.86;100.00;100511.28;5025968;28;20105;-67
2022/01/18 00:23:04;;;;;;;52.13;19.42;;;;;;;3.75;100.00;100510.88;5025418;28;20305;-67
2022/01/18 00:25:30;;;;;;;53.38;19.17;;;;;;;3.90;100.00;100510.53;5024900;28;20085;-67
2022/01/18 00:27:55;;;;;;;63.40;21.05;;;;;;;3.86;100.00;100509.53;5025373;28;20051;-67
2022/01/18 00:35:44;;;;;;;55.45;15.75;;;;;;;3.89;100.00;100508.78;5025371;28;20140;-67
2022/01/18 00:38:30;;;;;;;50.47;15.68;;;;;;;3.86;100.00;100514.75;5025395;28;20030;-67
2022/01/18 00:40:56;;;;;;;50.22;18.05;;;;;;;3.83;100.00;100513.75;5025251;28;20022;-67
2022/01/18 00:43:23;;;;;;;55.80;16.98;;;;;;;3.81;100.00;100521.53;5025132;28;20048;-67
2022/01/18 00:45:48;;;;;;;61.33;21.00;;;;;;;3.74;100.00;100506.47;5022805;28;20021;-67
2022/01/18 00:48:13;;;;;;;60.05;17.20;;;;;;;3.77;100.00;100509.19;5024878;28;20025;-67
2022/01/18 00:50:39;;;;;;;56.70;18.20;;;;;;;3.79;100.00;100512.75;5024983;28;20089;-67
2022/01/18 00:53:10;;;;;;;56.78;19.75;;;;;;;3.85;100.00;100512.97;5025034;28;20205;-67
2022/01/18 00:55:47;;;;;;;70.25;20.55;;;;;;;3.87;100.00;100510.44;5025264;28;20018;-67
2022/01/18 00:58:12;;;;;;;47.85;16.13;;;;;;;3.85;100.00;100512.97;5024843;28;20059;-67
2022/01/18 01:00:38;;;;;;;54.88;18.95;;;;;;;3.86;100.00;100513.88;5023510;28;20021;-67
2022/01/18 01:03:03;;;;;;;57.15;17.80;;;;;;;3.83;100.00;100514.63;5024679;28;20041;-67
2022/01/18 01:05:29;;;;;;;66.50;21.42;;;;;;;3.73;100.00;100517.72;5025276;28;20252;-67
2022/01/18 01:07:54;;;;;;;71.45;21.65;;;;;;;3.74;100.00;100516.88;5025427;28;20028;-67
2022/01/18 01:10:20;;;;;;;65.07;20.67;;;;;;;3.70;100.00;100517.59;5025272;28;20029;-67
2022/01/18 01:12:45;;;;;;;62.63;21.75;;;;;;;3.70;100.00;100512.41;5025312;28;20026;-67
2022/01/18 01:15:13;;;;;;;66.82;21.05;;;;;;;3.69;100.00;100510.63;5025533;28;20018;-67
2022/01/18 01:18:05;;;;;;;60.67;21.40;;;;;;;3.67;100.00;100516.63;5025230;28;20026;-67
2022/01/18 01:42:16;;;;;;;63.30;21.05;;;;;;;3.86;100.00;100535.59;5020701;28;20068;-67
2022/01/18 01:47:09;;;;;;;63.38;21.70;;;;;;;3.83;100.00;100521.56;5024180;28;20018;-67
2022/01/18 01:49:35;;;;;;;51.90;18.42;;;;;;;3.84;100.00;100525.94;5024237;28;20030;-67
2022/01/18 01:52:04;;;;;;;58.00;17.80;;;;;;;3.87;100.00;100521.75;5024000;28;20329;-67
2022/01/18 01:54:30;;;;;;;56.65;19.15;;;;;;;3.92;100.00;100524.50;5023875;28;20025;-67
2022/01/18 01:56:55;;;;;;;59.22;18.02;;;;;;;3.94;100.00;100528.97;5023788;28;20025;-67
2022/01/18 01:59:21;;;;;;;68.05;20.10;;;;;;;3.90;100.00;100527.03;5023787;28;20017;-67
2022/01/18 02:01:48;;;;;;;65.80;19.42;;;;;;;3.92;100.00;100525.38;5023856;28;20071;-67
2022/01/18 02:04:15;;;;;;;77.03;22.40;;;;;;;4.00;100.00;100523.06;5023622;28;20032;-67
2022/01/18 02:06:40;;;;;;;56.33;18.65;;;;;;;3.98;100.00;100520.41;5023905;28;20060;-67
2022/01/18 02:09:07;;;;;;;60.03;18.92;;;;;;;4.01;100.00;100515.31;5024338;28;20025;-67
2022/01/18 02:11:32;;;;;;;66.55;19.60;;;;;;;3.96;100.00;100506.44;5024384;28;20284;-67
2022/01/18 02:13:58;;;;;;;77.72;21.15;;;;;;;4.01;100.00;100510.09;5024602;28;20022;-67
2022/01/18 02:21:52;;;;;;;56.53;18.70;;;;;;;3.93;100.00;100495.91;5024281;28;20024;-67
2022/01/18 02:24:23;;;;;;;68.05;19.83;;;;;;;3.99;100.00;100480.50;5024145;28;20030;-67
2022/01/18 02:26:48;;;;;;;70.43;19.77;;;;;;;3.88;100.00;100479.22;5023455;28;20049;-67
2022/01/18 02:29:15;;;;;;;66.28;20.65;;;;;;;3.97;100.00;100492.59;5023397;28;20229;-67
2022/01/18 02:31:41;;;;;;;77.05;19.92;;;;;;;3.99;100.00;100490.91;5023063;28;20021;-67
2022/01/18 02:34:09;;;;;;;69.32;18.73;;;;;;;3.81;100.00;100495.47;5023194;28;20024;-67
2022/01/18 02:36:35;;;;;;;64.85;19.83;;;;;;;3.68;100.00;100482.84;5023373;28;20028;-67
2022/01/18 02:39:02;;;;;;;76.22;20.27;;;;;;;3.69;100.00;100484.59;5023193;28;20017;-67
2022/01/18 02:41:30;;;;;;;67.55;19.08;;;;;;;3.73;100.00;100490.78;5023414;28;20022;-67
2022/01/18 02:43:58;;;;;;;53.97;15.43;;;;;;;3.78;100.00;100484.94;5023364;28;20029;-67
2022/01/18 02:46:24;;;;;;;51.95;17.20;;;;;;;3.85;100.00;100493.84;5023633;28;20302;-67
2022/01/18 02:48:49;;;;;;;73.25;17.23;;;;;;;3.90;100.00;100494.91;5026957;28;20026;-67
2022/01/18 02:51:15;;;;;;;58.58;18.42;;;;;;;3.91;100.00;100481.94;5027257;28;20018;-67
2022/01/18 02:54:00;;;;;;;67.15;18.95;;;;;;;3.92;100.00;100483.72;5027322;28;20133;-67
2022/01/18 02:56:52;;;;;;;69.10;19.92;;;;;;;3.98;100.00;100489.16;5022545;28;20436;-67
2022/01/18 02:59:33;;;;;;;75.32;20.52;;;;;;;3.96;100.00;100490.78;5026813;28;20333;-67
2022/01/18 03:04:46;;;;;;;65.32;19.20;;;;;;;4.03;100.00;100490.22;5024781;28;20017;-67
2022/01/18 03:07:12;;;;;;;56.30;18.58;;;;;;;4.00;100.00;100492.72;5026678;28;20437;-67
2022/01/18 03:09:38;;;;;;;72.30;18.63;;;;;;;3.84;100.00;100490.38;5026613;28;20026;-67
2022/01/18 03:12:06;;;;;;;71.20;18.95;;;;;;;3.95;100.00;100494.25;5026753;28;20269;-67
2022/01/18 03:14:32;;;;;;;64.43;18.52;;;;;;;4.00;100.00;100487.50;5026547;28;20343;-67
2022/01/18 03:16:58;;;;;;;59.35;17.92;;;;;;;4.04;100.00;100481.56;5026488;28;20041;-67
2022/01/18 03:19:23;;;;;;;63.05;17.65;;;;;;;4.05;100.00;100485.91;5026490;28;20014;-67
2022/01/18 03:21:50;;;;;;;63.75;19.77;;;;;;;3.93;100.00;100485.47;5026454;28;20046;-67
2022/01/18 03:29:28;;;;;;;55.00;15.68;;;;;;;4.05;100.00;100496.34;5026573;28;20072;-67
2022/01/18 03:31:54;;;;;;;68.18;19.17;;;;;;;4.06;100.00;100492.94;5026386;28;20101;-67
2022/01/18 03:34:19;;;;;;;69.20;17.77;;;;;;;4.04;100.00;100499.78;5026444;28;20014;-67
2022/01/18 03:36:46;;;;;;;86.82;22.05;;;;;;;3.94;100.00;100502.91;5026476;28;20339;-67
2022/01/18 03:39:11;;;;;;;86.43;20.40;;;;;;;3.84;100.00;100511.22;5026827;28;20037;-67
2022/01/18 03:41:37;;;;;;;70.60;19.50;;;;;;;3.87;100.00;100500.91;5026387;28;20098;-67
2022/01/18 03:44:03;;;;;;;66.30;20.98;;;;;;;3.99;100.00;100501.34;5026071;28;20279;-67
2022/01/18 03:46:28;;;;;;;59.28;18.63;;;;;;;3.93;100.00;100495.03;5026398;28;20076;-67
2022/01/18 03:48:54;;;;;;;73.13;19.67;;;;;;;3.77;100.00;100483.16;5025966;28;20089;-67
2022/01/18 03:51:20;;;;;;;66.53;18.77;;;;;;;3.88;100.00;100497.47;5025872;28;20030;-67
2022/01/18 03:53:45;;;;;;;66.03;18.25;;;;;;;3.95;100.00;100491.63;5026495;28;20045;-67
2022/01/18 03:56:11;;;;;;;62.65;18.55;;;;;;;3.94;100.00;100497.69;5025971;28;20024;-67
2022/01/18 03:58:37;;;;;;;70.97;22.25;;;;;;;3.93;100.00;100501.09;5024947;28;20013;-67
2022/01/18 04:01:03;;;;;;;60.95;18.13;;;;;;;3.97;100.00;100503.00;5026101;28;20084;-67
2022/01/18 04:03:29;;;;;;;62.35;17.92;;;;;;;3.98;100.00;100501.28;5020025;28;20028;-67
2022/01/18 04:05:56;;;;;;;66.95;19.08;;;;;;;3.98;100.00;100507.38;5026872;28;20045;-67
2022/01/18 04:08:22;;;;;;;67.22;18.73;;;;;;;3.99;100.00;100511.75;5025672;28;20021;-67
2022/01/18 04:10:48;;;;;;;61.40;18.70;;;;;;;4.03;100.00;100503.25;5025685;28;20030;-67
2022/01/18 04:13:13;;;;;;;53.42;16.92;;;;;;;4.04;100.00;100505.00;5025647;28;20070;-67
2022/01/18 04:15:39;;;;;;;58.42;18.80;;;;;;;4.07;100.00;100505.13;5025839;28;20021;-67
2022/01/18 04:30:57;;;;;;;62.85;20.40;;;;;;;4.09;100.00;100524.28;5024477;28;20298;-67
2022/01/18 04:33:22;;;;;;;61.88;18.48;;;;;;;4.04;100.00;100518.03;5024712;28;20018;-67
2022/01/18 04:35:47;;;;;;;65.55;19.55;;;;;;;4.05;100.00;100521.53;5024257;28;20022;-67
2022/01/18 04:38:13;;;;;;;74.80;22.42;;;;;;;4.03;100.00;100510.16;5024238;28;20065;-67
2022/01/18 04:40:42;;;;;;;45.13;15.05;;;;;;;4.07;100.00;100518.16;5024622;28;20028;-67
2022/01/18 04:43:17;;;;;;;54.78;16.38;;;;;;;4.01;100.00;100523.13;5025547;28;20048;-67
2022/01/18 04:48:37;;;;;;;55.50;16.95;;;;;;;3.93;100.00;100521.94;5024845;28;20363;-67
2022/01/18 04:51:10;;;;;;;63.10;16.25;;;;;;;3.89;100.00;100520.06;5024179;28;20325;-67
2022/01/18 04:53:41;;;;;;;54.83;15.50;;;;;;;3.98;100.00;100528.22;5023640;28;20037;-67
2022/01/18 04:56:13;;;;;;;60.38;18.42;;;;;;;4.04;100.00;100536.28;5024176;28;20256;-67
2022/01/18 04:58:39;;;;;;;68.53;20.63;;;;;;;3.95;100.00;100530.72;5023876;28;20089;-67
2022/01/18 05:01:07;;;;;;;70.65;17.25;;;;;;;3.81;100.00;100531.94;5023737;28;20037;-67
2022/01/18 05:03:33;;;;;;;78.40;19.00;;;;;;;3.76;100.00;100533.47;5023570;28;20083;-67
2022/01/18 05:06:06;;;;;;;73.60;19.13;;;;;;;3.76;100.00;100533.47;5020182;28;20112;-67
2022/01/18 05:08:32;;;;;;;74.18;21.77;;;;;;;3.87;100.00;100526.06;5024759;28;20030;-67
2022/01/18 05:10:58;;;;;;;66.45;19.20;;;;;;;3.86;100.00;100530.38;5025117;28;20097;-67
2022/01/18 05:23:32;;;;;;;64.22;17.90;;;;;;;3.93;100.00;100542.78;5025529;28;20033;-67
2022/01/18 05:25:57;;;;;;;60.88;17.92;;;;;;;3.95;100.00;100546.34;5025019;28;20049;-67
2022/01/18 05:28:23;;;;;;;62.45;17.20;;;;;;;3.93;100.00;100550.59;5024913;28;20053;-67
2022/01/18 05:30:48;;;;;;;70.95;16.95;;;;;;;3.95;100.00;100550.66;5025305;28;20030;-67
2022/01/18 05:33:14;;;;;;;51.35;15.43;;;;;;;3.95;100.00;100555.88;5025058;28;20373;-67
2022/01/18 05:35:39;;;;;;;56.60;15.25;;;;;;;3.96;100.00;100550.72;5025232;28;20029;-67
2022/01/18 05:38:06;;;;;;;57.22;17.52;;;;;;;3.90;100.00;100537.47;5025006;28;20368;-67
2022/01/18 05:40:31;;;;;;;55.15;16.42;;;;;;;3.92;100.00;100547.94;5024919;28;20029;-67
2022/01/18 05:42:57;;;;;;;57.47;17.08;;;;;;;3.91;100.00;100549.69;5024885;28;20282;-67
2022/01/18 05:45:22;;;;;;;58.72;18.45;;;;;;;3.95;100.00;100546.34;5024855;28;20217;-67
2022/01/18 05:47:48;;;;;;;61.47;19.02;;;;;;;3.90;100.00;100542.66;5024789;28;20217;-67
2022/01/18 05:50:14;;;;;;;59.58;17.95;;;;;;;3.91;100.00;100552.28;5024686;28;20041;-67
2022/01/18 05:52:40;;;;;;;55.50;15.75;;;;;;;3.84;100.00;100557.19;5024656;28;20036;-67
2022/01/18 05:55:08;;;;;;;64.43;18.83;;;;;;;3.72;100.00;100561.94;5024662;28;20092;-67
2022/01/18 05:57:33;;;;;;;67.93;17.08;;;;;;;3.68;100.00;100555.75;5024496;28;20037;-67
2022/01/18 06:00:05;;;;;;;53.13;16.60;;;;;;;3.82;100.00;100554.53;5024577;28;20044;-67
2022/01/18 06:08:12;;;;;;;65.93;18.08;;;;;;;3.83;100.00;100558.91;5024015;28;20025;-67
2022/01/18 06:10:38;;;;;;;65.25;17.65;;;;;;;3.69;100.00;100557.50;5024602;28;20271;-67
2022/01/18 06:13:07;;;;;;;65.35;16.75;;;;;;;3.60;100.00;100567.56;5024368;28;20030;-67
2022/01/18 06:15:33;;;;;;;54.10;15.38;;;;;;;3.65;100.00;100570.34;5024376;28;20233;-67
2022/01/18 06:17:59;;;;;;;92.80;19.40;;;;;;;3.61;100.00;100571.94;5024338;28;20026;-67
2022/01/18 06:20:24;;;;;;;61.97;19.27;;;;;;;3.66;100.00;100577.31;5024308;28;20032;-67
2022/01/18 06:22:53;;;;;;;72.70;21.50;;;;;;;3.66;100.00;100567.81;5023613;28;20094;-67
2022/01/18 06:25:19;;;;;;;57.97;16.52;;;;;;;3.72;100.00;100577.56;5024164;28;20060;-67
2022/01/18 06:27:45;;;;;;;81.75;18.13;;;;;;;3.60;100.00;100579.69;5024094;28;20041;-67
2022/01/18 06:30:11;;;;;;;62.05;18.25;;;;;;;3.70;100.00;100572.28;5024350;28;20032;-67
2022/01/18 06:32:38;;;;;;;54.38;16.35;;;;;;;3.72;100.00;100582.78;5024392;28;20080;-67
2022/01/18 06:35:05;;;;;;;65.60;17.45;;;;;;;3.84;100.00;100578.03;5024108;28;20029;-67
2022/01/18 06:37:31;;;;;;;47.80;16.02;;;;;;;3.80;100.00;100582.22;5024114;28;20317;-67
2022/01/18 06:39:58;;;;;;;50.33;16.48;;;;;;;3.79;100.00;100580.47;5024061;28;20045;-67
2022/01/18 06:42:24;;;;;;;50.15;14.90;;;;;;;3.86;100.00;100582.47;5024296;28;20029;-67
2022/01/18 06:44:51;;;;;;;63.08;18.77;;;;;;;3.84;100.00;100581.53;5024003;28;20348;-67
2022/01/18 06:47:17;;;;;;;55.35;17.73;;;;;;;3.90;100.00;100579.13;5022837;28;20022;-67
2022/01/18 06:49:42;;;;;;;53.10;16.92;;;;;;;3.91;100.00;100583.53;5023907;28;20068;-67
2022/01/18 06:52:08;;;;;;;55.40;16.05;;;;;;;3.89;100.00;100582.59;5022871;28;20340;-67
2022/01/18 06:54:34;;;;;;;44.38;15.50;;;;;;;3.86;100.00;100585.06;5022948;28;20029;-67
2022/01/18 06:56:59;;;;;;;60.17;17.13;;;;;;;3.83;100.00;100591.91;5022989;28;20022;-67
2022/01/18 06:59:24;;;;;;;45.72;15.50;;;;;;;3.91;100.00;100593.06;5022948;28;20515;-67
2022/01/18 07:01:50;;;;;;;54.58;17.40;;;;;;;3.80;100.00;100603.06;5022949;28;20045;-67
2022/01/18 07:04:15;;;;;;;52.33;15.55;;;;;;;3.71;100.00;100601.84;5022908;28;20022;-67
2022/01/18 07:06:41;;;;;;;60.78;18.48;;;;;;;3.78;100.00;100599.53;5022512;28;20125;-67
2022/01/18 07:09:06;;;;;;;59.58;18.15;;;;;;;3.77;100.00;100602.09;5022820;28;20064;-67
2022/01/18 07:11:32;;;;;;;70.68;19.25;;;;;;;3.78;100.00;100609.97;5022889;28;20377;-67
2022/01/18 07:13:58;;;;;;;87.07;22.55;;;;;;;3.76;100.00;100601.19;5023086;28;20085;-67
2022/01/18 07:16:23;;;;;;;56.63;20.17;;;;;;;3.77;100.00;100602.94;5022832;28;20104;-67
2022/01/18 07:18:48;;;;;;;71.90;20.75;;;;;;;3.81;100.00;100602.25;5022425;28;20026;-67
2022/01/18 07:21:14;;;;;;;65.63;19.48;;;;;;;3.85;100.00;100598.94;5022812;28;20026;-67
2022/01/18 07:23:39;;;;;;;60.85;18.23;;;;;;;3.93;100.00;100614.88;5022979;28;20022;-67
2022/01/18 07:26:05;;;;;;;48.80;16.70;;;;;;;3.89;100.00;100621.66;5011700;28;20258;-67
2022/01/18 07:28:31;;;;;;;58.58;15.55;;;;;;;3.79;100.00;100601.31;5003735;28;20064;-67
2022/01/18 07:30:56;;;;;;;62.92;15.57;;;;;;;3.81;100.00;100603.97;5016956;28;20038;-67
2022/01/18 07:33:22;;;;;;;48.28;14.73;;;;;;;3.80;100.00;100605.66;5024234;28;20085;-67
2022/01/18 07:35:48;;;;;;;49.00;15.45;;;;;;;3.91;100.00;100617.41;5027178;28;20026;-67
2022/01/18 07:38:16;;;;;;;54.63;16.85;;;;;;;3.93;100.00;100610.53;5027240;28;20026;-67
2022/01/18 07:40:47;;;;;;;64.78;18.08;;;;;;;3.91;100.00;100617.41;5027095;28;20217;-67
2022/01/18 07:43:16;;;;;;;49.13;16.10;;;;;;;3.97;100.00;100608.94;5027054;28;20390;-67
2022/01/18 07:45:43;;;;;;;46.95;15.02;;;;;;;3.91;100.00;100614.81;5027063;28;20340;-67
2022/01/18 07:48:09;;;;;;;62.83;19.73;;;;;;;3.99;100.00;100604.69;5026993;28;20317;-67
2022/01/18 07:50:34;;;;;;;48.58;15.13;;;;;;;4.03;100.00;100607.47;5026945;28;20022;-67
2022/01/18 07:53:00;;;;;;;50.63;17.77;;;;;;;4.07;100.00;100619.75;5027147;28;20022;-67
2022/01/18 07:55:25;;;;;;;53.47;17.05;;;;;;;4.04;100.00;100609.22;5026876;28;20085;-67
2022/01/18 07:57:51;;;;;;;58.67;16.63;;;;;;;4.11;100.00;100611.22;5026826;28;20032;-67
2022/01/18 08:00:17;;;;;;;43.15;13.15;;;;;;;4.19;100.00;100616.72;5027031;28;20020;-67
2022/01/18 08:02:43;;;;;;;41.97;15.30;;;;;;;4.28;100.00;100619.69;5026714;28;20025;-67
2022/01/18 08:05:10;;;;;;;45.55;15.05;;;;;;;4.28;100.00;100620.53;5026680;28;20029;-67
2022/01/18 08:07:36;;;;;;;49.45;16.02;;;;;;;4.23;100.00;100626.44;5026636;28;20032;-67
2022/01/18 08:10:02;;;;;;;57.72;15.43;;;;;;;4.27;100.00;100620.50;5026506;28;20021;-67
2022/01/18 08:12:28;;;;;;;41.15;13.05;;;;;;;4.28;100.00;100625.75;5026516;28;20061;-67
2022/01/18 08:14:59;;;;;;;49.13;15.13;;;;;;;4.35;100.00;100622.56;5026530;28;20028;-67
2022/01/18 08:17:25;;;;;;;50.90;15.15;;;;;;;4.35;100.00;100614.75;5026490;28;20022;-67
2022/01/18 08:19:50;;;;;;;49.20;14.45;;;;;;;4.39;100.00;100608.81;5026421;28;20072;-67
2022/01/18 08:22:16;;;;;;;40.70;13.85;;;;;;;4.43;100.00;100605.47;5026372;28;20026;-67
2022/01/18 08:24:41;;;;;;;48.03;16.38;;;;;;;4.43;100.00;100610.69;5026231;28;20276;-67
2022/01/18 08:27:07;;;;;;;51.05;16.60;;;;;;;4.40;100.00;100615.78;5026292;28;20038;-67
2022/01/18 08:29:34;;;;;;;48.75;16.13;;;;;;;4.36;100.00;100611.31;5026196;28;20056;-67
2022/01/18 08:31:59;;;;;;;48.65;16.45;;;;;;;4.42;100.00;100616.75;5026424;28;20344;-67
2022/01/18 08:34:25;;;;;;;40.92;16.13;;;;;;;4.37;100.00;100626.09;5026190;28;20037;-67
2022/01/18 08:36:51;;;;;;;45.13;16.23;;;;;;;4.34;100.00;100615.56;5026244;28;20304;-67
2022/01/18 08:39:17;;;;;;;38.30;14.70;;;;;;;4.44;100.00;100617.66;5026338;28;20090;-67
2022/01/18 08:41:42;;;;;;;47.45;14.10;;;;;;;4.45;100.00;100616.84;5026249;28;20053;-67
2022/01/18 08:44:08;;;;;;;41.60;14.05;;;;;;;4.55;100.00;100625.00;5025627;28;20041;-67
2022/01/18 08:46:34;;;;;;;42.22;14.93;;;;;;;4.60;100.00;100628.66;5025624;28;20090;-67
2022/01/18 08:49:00;;;;;;;41.28;14.77;;;;;;;4.66;100.00;100629.78;5025783;28;20030;-67
2022/01/18 08:51:27;;;;;;;39.78;14.07;;;;;;;4.67;100.00;100630.66;5025845;28;20025;-67
2022/01/18 08:53:52;;;;;;;52.95;16.52;;;;;;;4.64;100.00;100635.75;5025847;28;20052;-67
2022/01/18 08:56:19;;;;;;;48.95;17.75;;;;;;;4.68;100.00;100632.44;5025732;28;20026;-67
2022/01/18 08:58:46;;;;;;;54.50;17.77;;;;;;;4.77;100.00;100638.00;5025920;28;20222;-67
2022/01/18 09:01:11;;;;;;;42.40;15.00;;;;;;;4.76;100.00;100630.97;5025676;28;20027;-67
2022/01/18 09:03:37;;;;;;;37.70;15.07;;;;;;;4.78;100.00;100639.75;5025600;28;20053;-67
2022/01/18 09:06:04;;;;;;;43.83;15.18;;;;;;;4.79;100.00;100620.66;5025562;28;20034;-67
2022/01/18 09:08:31;;;;;;;49.47;16.17;;;;;;;4.77;100.00;100617.97;5025416;28;20025;-67
2022/01/18 09:10:57;;;;;;;48.40;16.40;;;;;;;4.71;100.00;100616.91;5025572;28;20021;-67
2022/01/18 09:13:22;;;;;;;46.08;16.05;;;;;;;4.80;100.00;100627.63;5025490;28;20044;-67
2022/01/18 09:15:48;;;;;;;52.53;18.88;;;;;;;4.85;100.00;100636.53;5025426;28;20022;-67
2022/01/18 09:18:14;;;;;;;54.90;19.30;;;;;;;4.90;100.00;100634.97;5025346;28;20084;-67
2022/01/18 09:20:39;;;;;;;52.20;15.45;;;;;;;4.94;100.00;100636.84;5025300;28;20137;-67
2022/01/18 09:23:06;;;;;;;44.38;15.07;;;;;;;4.98;100.00;100638.72;5025278;28;20109;-67
2022/01/18 09:25:32;;;;;;;41.53;16.27;;;;;;;5.04;100.00;100650.28;5025183;28;20026;-67
2022/01/18 09:27:57;;;;;;;49.10;14.93;;;;;;;5.02;100.00;100651.03;5025156;28;20048;-67
2022/01/18 09:30:26;;;;;;;50.80;15.60;;;;;;;5.11;100.00;100651.34;5025347;28;20021;-67
2022/01/18 09:32:53;;;;;;;41.63;15.02;;;;;;;5.15;100.00;100650.63;5025084;28;20344;-67
2022/01/18 09:35:20;;;;;;;42.85;15.15;;;;;;;5.18;100.00;100653.31;5024997;28;20088;-67
2022/01/18 09:37:47;;;;;;;51.05;16.55;;;;;;;5.20;100.00;100662.09;5025271;28;20212;-67
2022/01/18 09:40:17;;;;;;;46.33;16.48;;;;;;;5.22;100.00;100650.00;5024952;28;20030;-67
2022/01/18 09:42:44;;;;;;;46.42;14.35;;;;;;;5.27;100.00;100635.38;5024930;28;20024;-67
2022/01/18 09:45:12;;;;;;;43.65;14.48;;;;;;;5.32;100.00;100642.50;5025133;28;20028;-67
2022/01/18 09:47:41;;;;;;;43.20;14.27;;;;;;;5.35;100.00;100646.97;5024798;28;20401;-67
2022/01/18 09:50:09;;;;;;;49.42;15.23;;;;;;;5.44;100.00;100637.69;5024771;28;20033;-67
2022/01/18 09:52:35;;;;;;;46.92;14.32;;;;;;;5.51;100.00;100636.19;5024797;28;20089;-67
2022/01/18 09:55:02;;;;;;;35.88;13.70;;;;;;;5.64;100.00;100638.34;5024799;28;20026;-67
2022/01/18 09:57:28;;;;;;;49.85;14.55;;;;;;;5.69;100.00;100645.50;5023803;28;20060;-67
2022/01/18 09:59:53;;;;;;;33.30;10.43;;;;;;;5.83;100.00;100648.56;5024643;28;20083;-67
2022/01/18 10:02:19;;;;;;;35.83;11.43;;;;;;;5.86;100.00;100644.31;5024583;28;20317;-67
2022/01/18 10:04:45;;;;;;;33.13;12.10;;;;;;;5.95;100.00;100648.97;5024541;28;20025;-67
2022/01/18 10:07:10;;;;;;;33.13;12.00;;;;;;;6.06;100.00;100652.78;5024582;28;20045;-67
2022/01/18 10:09:37;;;;;;;36.90;11.40;;;;;;;6.18;99.98;100647.94;5024700;28;20022;-67
2022/01/18 10:12:07;;;;;;;29.33;11.07;;;;;;;6.21;99.74;100645.41;5024517;28;20028;-67
2022/01/18 10:14:35;;;;;;;36.92;12.38;;;;;;;6.26;100.00;100641.19;5024382;28;20033;-67
2022/01/18 10:17:00;;;;;;;30.85;11.40;;;;;;;6.47;99.30;100649.66;5024387;28;20022;-67
2022/01/18 10:19:36;;;;;;;30.05;10.68;;;;;;;6.63;98.08;100644.03;5024377;28;20345;-67
2022/01/18 10:22:17;;;;;;;30.00;10.77;;;;;;;6.66;97.37;100641.50;5024637;28;20364;-67
2022/01/18 10:24:44;;;;;;;23.10;8.48;;;;;;;6.57;98.33;100638.63;5024311;28;20094;-67
2022/01/18 10:27:13;;;;;;;26.33;8.05;;;;;;;6.80;97.13;100632.28;5024122;28;20069;-67
2022/01/18 10:30:04;;;;;;;18.75;7.18;;;;;;;6.71;96.07;100636.41;5024458;28;20033;-67
2022/01/18 10:32:37;;;;;;;20.27;7.40;;;;;;;6.92;95.14;100643.09;5024254;28;20068;-67
2022/01/18 10:35:05;;;;;;;;;;;;;;;7.11;93.87;100629.66;5024597;28;20021;-67
2022/01/18 10:37:33;;;;;;;17.50;5.97;;;;;;;7.10;91.75;100633.13;5024140;28;19912;-67
2022/01/18 10:40:13;;;;;;;18.58;5.40;;;;;;;7.17;91.36;100626.28;5024088;28;20060;-67
2022/01/18 10:42:42;;;;;;;19.55;6.05;;;;;;;6.94;92.18;100628.31;5024139;28;20036;-67
2022/01/18 10:45:12;;;;;;;21.83;6.75;;;;;;;7.19;90.61;100609.78;5024120;28;20025;-67
2022/01/18 10:47:46;;;;;;;20.48;6.97;;;;;;;7.08;91.40;100607.75;5017097;28;20068;-67
2022/01/18 10:50:15;;;;;;;25.40;6.40;;;;;;;6.99;92.37;100592.66;5024048;28;20085;-67
2022/01/18 10:52:41;;;;;;;19.48;5.95;;;;;;;7.00;92.32;100594.47;5024047;28;20029;-67
2022/01/18 10:55:15;;;;;;;14.90;6.38;;;;;;;7.17;91.66;100590.53;5023992;28;20022;-67
2022/01/18 10:57:40;;;;;;;22.55;7.05;;;;;;;7.10;92.13;100596.47;5024017;28;20061;-67
2022/01/18 11:00:09;;;;;;;14.63;5.75;;;;;;;7.10;91.81;100591.22;5022517;28;20321;-67
2022/01/18 11:02:37;;;;;;;15.15;5.95;;;;;;;7.36;91.44;100595.38;5023227;28;20025;-67
2022/01/18 11:05:17;;;;;;;14.25;5.00;;;;;;;7.27;89.76;100584.66;5016357;28;20218;-67
2022/01/18 11:07:44;;;;;;;19.00;5.45;;;;;;;7.11;89.69;100586.84;5014340;28;20081;-67
2022/01/18 11:10:11;;;;;;;9.65;3.67;;;;;;;7.34;89.03;100586.56;5016552;28;20015;-67
2022/01/18 11:13:01;;;;;;;13.70;3.95;;;;;;;7.18;88.59;100573.94;5026270;28;20307;-67
2022/01/18 11:15:28;;;;;;;14.73;4.13;;;;;;;7.19;88.23;100578.38;5026219;28;20045;-67
2022/01/18 11:17:58;;;;;;;15.82;3.97;;;;;;;7.13;88.95;100578.22;5031111;28;20019;-67
2022/01/18 11:20:29;;;;;;;12.50;3.85;;;;;;;7.25;88.33;100586.38;5012565;28;20068;-67
2022/01/18 11:22:55;;;;;;;16.13;3.90;;;;;;;7.14;88.89;100577.34;5009873;28;20089;-67
2022/01/18 11:25:22;;;;;;;11.02;3.15;;;;;;;7.20;87.98;100569.66;5016893;28;20399;-68
2022/01/18 11:27:51;;;;;;;7.57;3.08;;;;;;;7.16;88.05;100570.44;5026466;28;20037;-67
2022/01/18 11:30:19;;;;;;;6.40;2.90;;;;;;;6.92;87.06;100569.78;5026359;28;20321;-67
2022/01/18 11:32:45;;;;;;;5.35;2.13;;;;;;;7.05;87.08;100560.53;5026415;28;20068;-67
2022/01/18 11:35:25;;;;;;;12.25;3.03;;;;;;;7.22;86.48;100562.72;5008655;28;20237;-67
2022/01/18 11:37:54;;;;;;;5.43;2.35;;;;;;;7.25;86.02;100568.03;5006688;28;20221;-67
2022/01/18 11:40:19;;;;;;;7.50;2.50;;;;;;;7.24;87.64;100561.00;5006420;28;20129;-67
2022/01/18 11:42:50;;;;;;;7.75;2.88;;;;;;;7.21;86.92;100563.56;5006865;28;20022;-67
2022/01/18 11:45:25;;;;;;;13.43;3.88;;;;;;;7.20;88.68;100548.69;5006541;28;20022;-67
2022/01/18 11:48:11;;;;;;;11.27;4.40;;;;;;;7.28;87.91;100555.00;5006532;28;20037;-67
2022/01/18 11:50:41;;;;;;;13.07;4.15;;;;;;;7.15;85.58;100552.91;5006427;28;20195;-67
2022/01/18 11:53:37;;;;;;;9.75;4.03;;;;;;;6.99;85.57;100540.31;5006270;28;20027;-67
2022/01/18 11:56:03;;;;;;;12.93;4.50;;;;;;;7.12;87.22;100542.38;5006365;28;20021;-67
2022/01/18 11:58:30;;;;;;;10.13;3.97;;;;;;;7.01;86.27;100543.84;5006518;28;20356;-67
2022/01/18 12:00:58;;;;;;;14.50;5.35;;;;;;;6.98;85.27;100541.16;5006257;28;20042;-67
2022/01/18 12:03:27;;;;;;;13.60;4.43;;;;;;;6.98;85.21;100537.66;5006223;28;20050;-67
2022/01/18 12:05:58;;;;;;;21.15;4.45;;;;;;;6.78;86.47;100539.78;5006010;28;20328;-67
2022/01/18 12:08:42;;;;;;;14.43;5.25;;;;;;;6.84;86.56;100534.69;5006097;28;20042;-67
2022/01/18 12:11:31;;;;;;;13.75;5.72;;;;;;;6.79;86.91;100541.53;5006300;28;20229;-67
2022/01/18 12:13:59;;;;;;;16.25;5.18;;;;;;;6.88;86.94;100547.00;5003052;28;20338;-67
2022/01/18 12:16:28;;;;;;;12.05;5.43;;;;;;;6.84;87.78;100534.69;5005994;28;20090;-67
2022/01/18 12:19:03;;;;;;;20.20;4.90;;;;;;;6.82;87.86;100531.16;5005082;28;20022;-67
2022/01/18 12:21:32;;;;;;;10.88;4.15;;;;;;;6.81;87.13;100539.84;5005513;28;20101;-67
2022/01/18 12:24:16;;;;;;;9.45;3.88;;;;;;;6.77;88.64;100543.22;5005701;28;20060;-67
2022/01/18 12:26:46;;;;;;;8.70;3.58;;;;;;;6.85;87.00;100535.56;5005651;28;20061;-67
2022/01/18 12:29:22;;;;;;;9.82;4.32;;;;;;;6.77;88.14;100537.97;5005899;28;20037;-67
2022/01/18 12:34:25;;;;;;;10.55;3.08;;;;;;;6.93;85.70;100540.13;5005902;28;20030;-67
2022/01/18 12:37:13;;;;;;;5.18;2.35;;;;;;;6.78;86.90;100533.66;5005518;28;20147;-67